Rincon Reservation (909, 6926) Station Data

Red Flag Warning: No
Fire Weather Zone: 250
SDGE Region: North East
Lat/Lon: 33.251/-116.957

Observations

Time Wind Speed/Gust Temp(F) RH Fuel Moist Fuel Temp(F) Dewpt(F) Tmax(F) Tmin(F) Accum Precip 10-min Precip SL Press(mb)
6/27 5:00pm 200 8 G 13 95° 11% - - 33° 100.5° 56.6° - - 886.0
6/27 4:50pm 209 8 G 12 95° 11% - - 33° 100.5° 56.6° - - 886.0
6/27 4:40pm 209 7 G 13 96° 11% - - 32° 100.5° 56.6° - - 887.0
6/27 4:30pm 205 8 G 15 96° 11% - - 32° 100.5° 56.6° - - 887.0
6/27 4:20pm 193 8 G 13 96° 10% - - 31° 100.5° 56.6° - - 887.0
6/27 4:10pm 196 7 G 12 97° 10% - - 30° 100.5° 56.6° - - 887.0
6/27 4:00pm 192 7 G 13 97° 10% - - 32° 100.5° 56.6° - - 888.0
6/27 3:50pm 211 7 G 14 96° 11% - - 33° 100.5° 56.6° - - 888.0
6/27 3:40pm 195 9 G 15 97° 11% - - 33° 100.5° 56.6° - - 888.0
6/27 3:30pm 224 8 G 16 98° 10% - - 32° 100.5° 56.6° - - 888.0
6/27 3:20pm 211 8 G 14 98° 10% - - 32° 100.5° 56.6° - - 888.0
6/27 3:10pm 228 7 G 12 98° 9% - - 31° 100.5° 56.6° - - 888.0
6/27 3:00pm 217 8 G 13 99° 9% - - 31° 100.5° 56.6° - - 888.0
6/27 2:50pm 216 8 G 16 98° 10% - - 32° 100.5° 56.6° - - 889.0
6/27 2:40pm 247 5 G 13 99° 10% - - 32° 100.5° 56.6° - - 889.0
6/27 2:30pm 257 7 G 13 98° 9% - - 30° 100.5° 56.6° - - 888.0
6/27 2:20pm 275 6 G 12 98° 8% - - 26° 100.5° 56.6° - - 888.0
6/27 2:10pm 251 6 G 11 99° 7% - - 25° 100.5° 56.6° - - 888.0
6/27 2:00pm 279 5 G 10 99° 7% - - 25° 100.4° 56.6° - - 888.0
6/27 1:50pm 260 7 G 13 98° 7% - - 24° 100.4° 56.6° - - 888.0
6/27 1:40pm 258 7 G 12 98° 8% - - 26° 100.4° 56.6° - - 888.0
6/27 1:30pm 241 6 G 12 99° 8% - - 27° 100.4° 56.6° - - 888.0
6/27 1:20pm 248 6 G 12 99° 8% - - 28° 100.4° 56.6° - - 888.0
6/27 1:10pm 245 7 G 13 98° 8% - - 28° 100.4° 56.6° - - 888.0
6/27 1:00pm 247 6 G 10 99° 8% - - 27° 100.4° 56.6° - - 888.0
6/27 12:50pm 266 6 G 12 99° 8% - - 26° 100.4° 56.6° - - 887.0
6/27 12:40pm 238 7 G 12 99° 7% - - 26° 100.4° 56.6° - - 887.0
6/27 12:30pm 254 5 G 13 98° 7% - - 24° 100° 56.6° - - 887.0
6/27 12:20pm 221 5 G 12 99° 7% - - 23° 100° 56.6° - - 887.0
6/27 12:10pm 258 5 G 17 99° 7% - - 23° 100° 56.6° - - 887.0
6/27 12:00pm 232 6 G 15 98° 7% - - 23° 99.5° 56.6° - - 886.0
6/27 11:50am 236 8 G 12 98° 7% - - 23° 99.5° 56.6° - - 886.0
6/27 11:40am 239 4 G 9 98° 7% - - 24° 99.5° 56.6° - - 886.0
6/27 11:30am 267 5 G 9 98° 7% - - 24° 98° 56.6° - - 885.0
6/27 11:20am 248 4 G 11 97° 7% - - 23° 97.8° 56.6° - - 885.0
6/27 11:10am 313 5 G 10 96° 7% - - 24° 97.5° 56.6° - - 884.0
6/27 11:00am 334 7 G 11 96° 8% - - 25° 96.4° 56.6° - - 884.0
6/27 10:50am 32 6 G 10 95° 9% - - 27° 95.2° 56.6° - - 884.0
6/27 10:40am 49 6 G 8 94° 9% - - 27° 94.2° 56.6° - - 883.0
6/27 10:30am 11 6 G 10 93° 10% - - 28° 93.5° 56.6° - - 883.0
6/27 10:20am 7 6 G 11 92° 11% - - 29° 92.5° 56.6° - - 882.0
6/27 10:10am 13 7 G 10 92° 10% - - 28° 92.3° 56.6° - - 882.0
6/27 10:00am 7 7 G 10 92° 10% - - 27° 92.3° 56.6° - - 881.0
6/27 9:50am 22 5 G 10 92° 10% - - 27° 92.3° 56.6° - - 881.0
6/27 9:40am 17 4 G 6 91° 10% - - 27° 92.1° 56.6° - - 880.0
6/27 9:30am 21 3 G 5 91° 10% - - 27° 91.2° 56.6° - - 880.0
6/27 9:20am 31 2 G 4 91° 10% - - 26° 91.2° 56.6° - - 879.0
6/27 9:10am 55 2 G 4 90° 10% - - 25° 90.5° 56.6° - - 878.0
6/27 9:00am 61 1 G 3 89° 11% - - 27° 89.2° 56.6° - - 878.0
6/27 8:50am 53 1 G 3 87° 11% - - 27° 88° 56.6° - - 877.0
6/27 8:40am 287 1 G 2 85° 12% - - 28° 85.8° 56.6° - - 876.0
6/27 8:30am 348 1 G 2 85° 13% - - 29° 85.8° 56.6° - - 875.0
6/27 8:20am 71 1 G 2 84° 14% - - 29° 84.5° 56.6° - - 874.0
6/27 8:10am 95 1 G 2 81° 16% - - 31° 82.1° 56.6° - - 873.0
6/27 8:00am 125 1 G 2 79° 19% - - 33° 79.9° 56.6° - - 873.0
6/27 7:50am 236 1 G 2 77° 19% - - 32° 78.3° 56.6° - - 871.0
6/27 7:40am 304 0 G 2 75° 22% - - 34° 76.8° 56.6° - - 871.0
6/27 7:30am 150 1 G 2 71° 26% - - 35° 72.7° 56.6° - - 871.0
6/27 7:20am 190 2 G 4 69° 27% - - 34° 71° 56.6° - - 871.0
6/27 7:10am 196 3 G 5 68° 28% - - 33° 68.4° 56.6° - - 870.0
6/27 7:00am 217 1 G 3 65° 32% - - 35° 68.3° 56.6° - - 871.0
6/27 6:50am 197 1 G 2 62° 36% - - 35° 68.3° 56.6° - - 871.0
6/27 6:40am 189 1 G 3 59° 39% - - 34° 68.3° 56.6° - - 872.0
6/27 6:30am 263 1 G 3 58° 37% - - 32° 68.3° 56.6° - - 871.0
6/27 6:20am 226 1 G 3 58° 38% - - 32° 68.3° 56.6° - - 871.0
6/27 6:10am 208 2 G 4 58° 38% - - 32° 68.3° 56.6° - - 871.0
6/27 6:00am 185 2 G 4 58° 38% - - 32° 68.3° 56.6° - - 871.0
6/27 5:50am 234 2 G 4 59° 34% - - 31° 68.3° 57.2° - - 870.0
6/27 5:40am 200 2 G 3 58° 37% - - 32° 68.3° 57.4° - - 871.0
6/27 5:30am 210 2 G 4 59° 35% - - 31° 68.3° 57.5° - - 870.0
6/27 5:20am 219 2 G 4 59° 35% - - 31° 68.3° 57.6° - - 871.0
6/27 5:10am 208 2 G 3 58° 36% - - 32° 68.3° 57.7° - - 871.0
6/27 5:00am 213 2 G 3 59° 36% - - 32° 68.3° 57.7° - - 871.0
6/27 4:50am 187 2 G 3 59° 37% - - 33° 68.3° 57.9° - - 872.0
6/27 4:40am 212 2 G 4 60° 34% - - 32° 68.3° 58.5° - - 871.0
6/27 4:30am 198 3 G 4 59° 36% - - 32° 68.3° 58.5° - - 871.0
6/27 4:20am 220 1 G 3 60° 34% - - 32° 68.3° 58.5° - - 871.0
6/27 4:10am 220 2 G 2 60° 36% - - 32° 68.3° 58.5° - - 871.0
6/27 4:00am 204 1 G 2 59° 37% - - 33° 68.3° 58.5° - - 872.0
6/27 3:50am 210 2 G 2 59° 37% - - 33° 68.3° 58.8° - - 872.0
6/27 3:40am 202 1 G 2 60° 36% - - 33° 68.3° 59.7° - - 872.0
6/27 3:30am 250 1 G 2 60° 37% - - 34° 68.3° 59.9° - - 872.0
6/27 3:20am 198 2 G 4 60° 37% - - 34° 68.3° 59.9° - - 873.0
6/27 3:10am 216 2 G 3 62° 33% - - 33° 68.3° 60.8° - - 872.0
6/27 3:00am 208 1 G 2 62° 35% - - 34° 68.3° 60.8° - - 872.0
6/27 2:50am 216 2 G 3 63° 34% - - 34° 68.3° 60.8° - - 872.0
6/27 2:40am 228 2 G 3 62° 36% - - 35° 68.3° 60.8° - - 873.0
6/27 2:30am 192 2 G 3 62° 38% - - 36° 68.3° 60.8° - - 874.0
6/27 2:20am 208 1 G 3 62° 37% - - 36° 68.3° 61.1° - - 874.0
6/27 2:10am 207 2 G 3 62° 39% - - 37° 68.3° 61.1° - - 874.0
6/27 2:00am 214 3 G 5 65° 33% - - 35° 68.3° 62.7° - - 873.0
6/27 1:50am 220 3 G 4 64° 35% - - 36° 68.3° 62.7° - - 874.0
6/27 1:40am 221 1 G 3 63° 39% - - 37° 68.3° 62.7° - - 875.0
6/27 1:30am 204 3 G 4 64° 37% - - 37° 68.3° 63.1° - - 875.0
6/27 1:20am 159 2 G 3 64° 38% - - 38° 68.3° 63.1° - - 875.0
6/27 1:10am 198 3 G 4 64° 39% - - 39° 68.3° 63.7° - - 876.0
6/27 1:00am 211 1 G 2 65° 38% - - 38° 68.3° 63.9° - - 876.0
6/27 12:50am 185 2 G 4 66° 35% - - 38° 68.3° 64.4° - - 875.0
6/27 12:40am 180 1 G 3 67° 34% - - 37° 68.3° 65.8° - - 875.0
6/27 12:30am 213 3 G 5 68° 33% - - 38° 68.3° 67° - - 875.0
6/27 12:20am 206 3 G 4 68° 34% - - 38° 68.3° 67° - - 875.0
6/27 12:10am 200 2 G 3 68° 34% - - 38° 68.3° 67° - - 876.0
6/27 12:00am 206 1 G 3 68° 35% - - 39° 105.5° 60.2° - - 876.0
6/26 11:50pm 173 1 G 2 69° 33% - - 39° 105.5° 60.2° - - 876.0
6/26 11:40pm 220 3 G 4 71° 31% - - 39° 105.5° 60.2° - - 876.0
6/26 11:30pm 213 3 G 4 71° 32% - - 40° 105.5° 60.2° - - 877.0
6/26 11:20pm 207 3 G 4 71° 32% - - 40° 105.5° 60.2° - - 877.0
6/26 11:10pm 198 3 G 4 71° 32% - - 40° 105.5° 60.2° - - 877.0
6/26 11:00pm 214 3 G 4 71° 31% - - 39° 105.5° 60.2° - - 877.0
6/26 10:50pm 170 1 G 2 71° 28% - - 37° 105.5° 60.2° - - 876.0
6/26 10:40pm 283 0 G 1 72° 27% - - 36° 105.5° 60.2° - - 876.0
6/26 10:30pm 261 0 G 1 72° 26% - - 36° 105.5° 60.2° - - 876.0
6/26 10:20pm 51 0 G 1 72° 25% - - 35° 105.5° 60.2° - - 877.0
6/26 10:10pm 193 1 G 2 73° 27% - - 36° 105.5° 60.2° - - 878.0
6/26 10:00pm 194 1 G 2 74° 26% - - 37° 105.5° 60.2° - - 878.0
6/26 9:50pm 202 1 G 2 75° 24% - - 36° 105.5° 60.2° - - 878.0
6/26 9:40pm 230 1 G 2 76° 23% - - 36° 105.5° 60.2° - - 879.0
6/26 9:30pm 276 0 G 1 77° 22% - - 35° 105.5° 60.2° - - 879.0
6/26 9:20pm 205 1 G 2 78° 20% - - 34° 105.5° 60.2° - - 879.0
6/26 9:10pm 189 1 G 2 78° 18% - - 32° 105.5° 60.2° - - 880.0
6/26 9:00pm 194 2 G 3 79° 19% - - 33° 105.5° 60.2° - - 881.0
6/26 8:50pm 218 3 G 5 80° 18% - - 33° 105.5° 60.2° - - 881.0
6/26 8:40pm 221 3 G 4 82° 16% - - 31° 105.5° 60.2° - - 882.0
6/26 8:30pm 213 3 G 4 83° 15% - - 30° 105.5° 60.2° - - 882.0
6/26 8:20pm 202 4 G 5 83° 15% - - 30° 105.5° 60.2° - - 883.0
6/26 8:10pm 214 3 G 3 84° 16% - - 32° 105.5° 60.2° - - 884.0
6/26 8:00pm 208 2 G 3 86° 15% - - 32° 105.5° 60.2° - - 885.0
6/26 7:50pm 250 2 G 4 88° 13% - - 31° 105.5° 60.2° - - 886.0
6/26 7:40pm 271 2 G 3 90° 12% - - 31° 105.5° 60.2° - - 886.0
6/26 7:30pm 259 2 G 4 93° 11% - - 30° 105.5° 60.2° - - 887.0
6/26 7:20pm 250 3 G 5 95° 10% - - 29° 105.5° 60.2° - - 887.0
6/26 7:10pm 216 2 G 4 96° 9% - - 28° 105.5° 60.2° - - 887.0
6/26 7:00pm 242 3 G 5 96° 9% - - 27° 105.5° 60.2° - - 887.0
6/26 6:50pm 276 4 G 6 97° 8% - - 26° 105.5° 60.2° - - 888.0
6/26 6:40pm 241 3 G 5 97° 8% - - 25° 105.5° 60.2° - - 888.0
6/26 6:30pm 264 5 G 9 97° 8% - - 25° 105.5° 60.2° - - 888.0
6/26 6:20pm 276 6 G 10 97° 7% - - 24° 105.5° 60.2° - - 888.0
6/26 6:10pm 282 4 G 7 98° 8% - - 26° 105.5° 60.2° - - 888.0
6/26 6:00pm 276 6 G 10 99° 7% - - 23° 105.5° 60.2° - - 888.0
6/26 5:50pm 275 5 G 12 99° 6% - - 22° 105.5° 60.2° - - 888.0
6/26 5:40pm 268 7 G 12 99° 6% - - 21° 105.5° 60.2° - - 888.0
6/26 5:30pm 259 8 G 13 99° 6% - - 20° 105.5° 60.2° - - 888.0
6/26 5:20pm 262 7 G 13 100° 6% - - 22° 105.5° 60.2° - - 888.0
6/26 5:10pm 244 7 G 12 100° 6% - - 22° 105.5° 60.2° - - 888.0
6/26 5:00pm 247 7 G 12 101° 6% - - 22° 105.5° 60.2° - - 888.0
6/26 4:50pm 243 8 G 13 101° 6% - - 23° 105.5° 60.2° - - 888.0
6/26 4:40pm 242 9 G 17 101° 6% - - 22° 105.5° 60.2° - - 888.0
6/26 4:30pm 244 7 G 12 101° 7% - - 26° 105.5° 60.2° - - 889.0
6/26 4:20pm 232 7 G 12 102° 7% - - 25° 105.5° 60.2° - - 889.0
6/26 4:10pm 253 8 G 14 101° 6% - - 23° 105.5° 60.2° - - 889.0
6/26 4:00pm 260 9 G 13 101° 6% - - 23° 105.5° 60.2° - - 889.0
6/26 3:50pm 259 8 G 15 101° 7% - - 25° 105.5° 60.2° - - 889.0
6/26 3:40pm 254 7 G 11 102° 8% - - 28° 105.5° 60.2° - - 890.0
6/26 3:30pm 250 7 G 13 102° 7% - - 28° 105.5° 60.2° - - 890.0
6/26 3:20pm 260 8 G 13 101° 7% - - 26° 105.5° 60.2° - - 889.0
6/26 3:10pm 238 8 G 13 103° 7% - - 27° 105.5° 60.2° - - 890.0
6/26 3:00pm 239 8 G 13 102° 7% - - 26° 105.5° 60.2° - - 890.0
6/26 2:50pm 254 7 G 15 102° 6% - - 24° 105.5° 60.2° - - 889.0
6/26 2:40pm 253 8 G 13 102° 6% - - 24° 105.5° 60.2° - - 889.0
6/26 2:30pm 273 8 G 14 102° 7% - - 25° 105.5° 60.2° - - 890.0
6/26 2:20pm 266 8 G 13 102° 7% - - 25° 105.5° 60.2° - - 890.0
6/26 2:10pm 272 7 G 13 102° 7% - - 27° 105.5° 60.2° - - 890.0
6/26 2:00pm 285 8 G 12 102° 7% - - 27° 105.5° 60.2° - - 890.0
6/26 1:50pm 283 8 G 13 103° 7% - - 26° 105.5° 60.2° - - 890.0
6/26 1:40pm 268 6 G 15 103° 7% - - 28° 105.5° 60.2° - - 890.0
6/26 1:30pm 281 8 G 14 103° 8% - - 29° 105.5° 60.2° - - 890.0
6/26 1:20pm 268 8 G 13 103° 8% - - 30° 105.5° 60.2° - - 890.0
6/26 1:10pm 270 7 G 12 103° 7% - - 28° 105.5° 60.2° - - 890.0
6/26 1:00pm 269 7 G 14 103° 7% - - 27° 105.5° 60.2° - - 890.0
6/26 12:50pm 284 8 G 13 103° 7% - - 25° 105.5° 60.2° - - 890.0
6/26 12:40pm 287 7 G 12 103° 7% - - 26° 105.5° 60.2° - - 889.0
6/26 12:30pm 274 6 G 12 104° 7% - - 28° 105.5° 60.2° - - 890.0
6/26 12:20pm 243 6 G 13 104° 7% - - 26° 105.5° 60.2° - - 889.0
6/26 12:10pm 291 4 G 8 103° 7% - - 28° 105.5° 60.2° - - 889.0
6/26 12:00pm 285 4 G 9 103° 7% - - 28° 105.5° 60.2° - - 889.0
6/26 11:50am 270 4 G 11 104° 7% - - 26° 105.5° 60.2° - - 889.0
6/26 11:40am 244 5 G 9 104° 6% - - 24° 105.5° 60.2° - - 888.0
6/26 11:30am 259 5 G 10 103° 6% - - 23° 104.6° 60.2° - - 888.0
6/26 11:20am 270 6 G 10 103° 6% - - 23° 104.1° 60.2° - - 888.0
6/26 11:10am 281 4 G 9 103° 6% - - 25° 104° 60.2° - - 887.0
6/26 11:00am 311 4 G 10 102° 8% - - 28° 103.1° 60.2° - - 887.0
6/26 10:50am 14 6 G 10 100° 12% - - 38° 100.5° 60.2° - - 887.0
6/26 10:40am 7 5 G 8 100° 12% - - 37° 100.4° 60.2° - - 887.0
6/26 10:30am 4 6 G 9 99° 12% - - 37° 99.4° 60.2° - - 886.0
6/26 10:20am 12 6 G 8 99° 12% - - 36° 99.3° 60.2° - - 886.0
6/26 10:10am 39 5 G 7 98° 12% - - 37° 98.4° 60.2° - - 885.0
6/26 10:00am 60 4 G 6 96° 14% - - 40° 97.4° 60.2° - - 885.0
6/26 9:50am 34 4 G 6 94° 16% - - 41° 95.3° 60.2° - - 885.0
6/26 9:40am 40 5 G 7 93° 17% - - 42° 93.6° 60.2° - - 885.0
6/26 9:30am 31 4 G 6 93° 17% - - 42° 93.6° 60.2° - - 884.0
6/26 9:20am 37 4 G 6 93° 16% - - 40° 93.4° 60.2° - - 884.0
6/26 9:10am 26 3 G 5 93° 15% - - 38° 93.2° 60.2° - - 883.0
6/26 9:00am 55 2 G 4 93° 14% - - 37° 93.1° 60.2° - - 882.0
6/26 8:50am 356 1 G 3 92° 15% - - 38° 92.1° 60.2° - - 881.0
6/26 8:40am 194 0 G 2 90° 16% - - 39° 91.1° 60.2° - - 880.0
6/26 8:30am 186 1 G 3 88° 18% - - 40° 89° 60.2° - - 879.0
6/26 8:20am 187 1 G 2 86° 19% - - 39° 87.2° 60.2° - - 878.0
6/26 8:10am 183 1 G 2 84° 22% - - 41° 85.2° 60.2° - - 878.0
6/26 8:00am 181 1 G 2 82° 23% - - 41° 83.1° 60.2° - - 877.0
6/26 7:50am 172 0 G 2 81° 25% - - 42° 82.3° 60.2° - - 876.0
6/26 7:40am 42 0 G 1 78° 29% - - 43° 80.2° 60.2° - - 876.0
6/26 7:30am 127 0 G 1 76° 31% - - 43° 76.7° 60.2° - - 876.0
6/26 7:20am 101 0 G 1 74° 33% - - 43° 75.6° 60.2° - - 875.0
6/26 7:10am 125 0 G 1 72° 37% - - 44° 72.2° 60.2° - - 876.0
6/26 7:00am 190 0 G 1 70° 41% - - 45° 71.9° 60.2° - - 876.0
6/26 6:50am 162 0 G 2 67° 43% - - 44° 71.9° 60.2° - - 876.0
6/26 6:40am 231 2 G 4 66° 44% - - 43° 71.9° 60.2° - - 876.0
6/26 6:30am 215 3 G 4 64° 48% - - 44° 71.9° 60.2° - - 877.0
6/26 6:20am 194 3 G 4 62° 52% - - 44° 71.9° 60.2° - - 879.0
6/26 6:10am 199 2 G 3 61° 53% - - 44° 71.9° 60.2° - - 879.0
6/26 6:00am 232 1 G 1 61° 53% - - 44° 71.9° 60.2° - - 879.0